createdAt,value
2019-05-12T00:01:33.629Z,27.90
2019-05-12T00:04:04.513Z,27.90
2019-05-12T00:06:35.594Z,27.90
2019-05-12T00:09:08.353Z,27.90
2019-05-12T00:11:39.635Z,28.00
2019-05-12T00:14:10.307Z,28.00
2019-05-12T00:16:41.583Z,28.00
2019-05-12T00:19:12.260Z,28.00
2019-05-12T00:21:43.180Z,28.10
2019-05-12T00:24:14.130Z,28.10
2019-05-12T00:26:45.104Z,28.10
2019-05-12T00:29:18.339Z,28.20
2019-05-12T00:31:48.028Z,28.20
2019-05-12T00:34:18.913Z,28.30
2019-05-12T00:36:49.795Z,28.30
2019-05-12T00:39:20.683Z,28.40
2019-05-12T00:41:51.696Z,28.40
2019-05-12T00:44:22.638Z,28.40
2019-05-12T00:46:53.657Z,28.40
2019-05-12T00:49:24.987Z,28.50
2019-05-12T00:51:55.834Z,28.50
2019-05-12T00:54:28.473Z,28.60
2019-05-12T00:56:58.766Z,28.70
2019-05-12T00:59:29.681Z,28.70
2019-05-12T01:02:00.366Z,28.70
2019-05-12T01:04:31.244Z,28.70
2019-05-12T01:07:02.127Z,28.70
2019-05-12T01:09:32.813Z,28.80
2019-05-12T01:12:03.923Z,28.80
2019-05-12T01:14:34.773Z,28.80
2019-05-12T01:17:05.744Z,28.90
2019-05-12T01:19:37.438Z,28.90
2019-05-12T01:22:09.058Z,29.00
2019-05-12T01:24:40.111Z,29.10
2019-05-12T01:27:11.106Z,29.20
2019-05-12T01:29:42.093Z,29.30
2019-05-12T01:32:14.272Z,29.40
2019-05-12T01:34:45.019Z,29.50
2019-05-12T01:37:18.381Z,29.50
2019-05-12T01:39:49.328Z,29.60
2019-05-12T01:42:21.016Z,29.70
2019-05-12T01:44:51.784Z,29.70
2019-05-12T01:47:22.464Z,29.70
2019-05-12T01:49:53.197Z,29.80
2019-05-12T01:52:24.216Z,29.80
2019-05-12T01:54:55.317Z,29.80
2019-05-12T01:57:26.252Z,29.80
2019-05-12T01:59:58.631Z,29.90
2019-05-12T02:02:29.823Z,30.00
2019-05-12T02:05:02.066Z,30.00
2019-05-12T02:07:34.185Z,30.00
2019-05-12T02:10:06.050Z,30.10
2019-05-12T02:12:38.302Z,30.10
2019-05-12T02:15:09.507Z,30.20
2019-05-12T02:17:40.460Z,30.30
2019-05-12T02:20:11.620Z,30.30
2019-05-12T02:22:42.612Z,30.40
2019-05-12T02:25:13.478Z,30.40
2019-05-12T02:27:44.483Z,30.50
2019-05-12T02:30:15.579Z,30.60
2019-05-12T02:32:52.491Z,30.60
2019-05-12T02:35:18.380Z,30.70
2019-05-12T02:37:49.250Z,30.80
2019-05-12T02:40:20.321Z,30.90
2019-05-12T02:42:54.541Z,30.90
2019-05-12T02:45:25.182Z,31.00
2019-05-12T02:47:55.764Z,31.10
2019-05-12T02:50:29.405Z,31.20
2019-05-12T02:53:00.389Z,31.20
2019-05-12T02:55:34.509Z,31.30
2019-05-12T02:58:05.055Z,31.40
2019-05-12T03:00:36.407Z,31.40
2019-05-12T03:03:09.773Z,31.40
2019-05-12T03:05:44.537Z,31.50
2019-05-12T03:08:16.099Z,31.60
2019-05-12T03:10:47.719Z,31.70
2019-05-12T03:13:18.802Z,31.80
2019-05-12T03:15:49.636Z,32.00
2019-05-12T03:18:20.764Z,32.00
2019-05-12T03:20:54.034Z,32.10
2019-05-12T03:23:24.858Z,32.10
2019-05-12T03:25:55.897Z,32.10
2019-05-12T03:28:26.596Z,32.20
2019-05-12T03:30:58.424Z,32.30
2019-05-12T03:33:35.970Z,32.40
2019-05-12T03:36:08.429Z,32.50
2019-05-12T03:38:36.346Z,32.50
2019-05-12T03:41:07.222Z,32.60
2019-05-12T03:43:38.218Z,32.60
2019-05-12T03:46:09.198Z,32.70
2019-05-12T03:48:40.098Z,32.80
2019-05-12T03:51:11.054Z,32.90
2019-05-12T03:53:45.140Z,33.00
2019-05-12T03:56:15.027Z,33.00
2019-05-12T03:58:46.274Z,33.00
2019-05-12T04:01:18.215Z,33.00
2019-05-12T04:03:49.011Z,33.00
2019-05-12T04:06:19.765Z,33.00
2019-05-12T04:08:50.467Z,33.00
2019-05-12T04:11:21.130Z,33.00
2019-05-12T04:13:54.814Z,33.00
2019-05-12T04:16:24.818Z,32.90
2019-05-12T04:18:56.044Z,32.90
2019-05-12T04:21:27.032Z,32.80
2019-05-12T04:23:57.917Z,32.70
2019-05-12T04:26:28.712Z,32.70
2019-05-12T04:28:59.559Z,32.70
2019-05-12T04:31:30.302Z,32.70
2019-05-12T04:34:01.231Z,32.70
2019-05-12T04:36:35.174Z,32.70
2019-05-12T04:39:05.096Z,32.70
2019-05-12T04:41:35.788Z,32.60
2019-05-12T04:44:06.764Z,32.60
2019-05-12T04:46:37.736Z,32.70
2019-05-12T04:49:08.580Z,32.70
2019-05-12T04:51:39.455Z,32.80
2019-05-12T04:54:10.440Z,32.90
2019-05-12T04:56:44.338Z,32.90
2019-05-12T04:59:15.625Z,32.90
2019-05-12T05:01:45.691Z,32.90
2019-05-12T05:04:16.692Z,32.90
2019-05-12T05:06:47.547Z,32.90
2019-05-12T05:09:18.534Z,33.00
2019-05-12T05:11:49.520Z,33.10
2019-05-12T05:14:20.510Z,33.20
2019-05-12T05:16:54.105Z,33.30
2019-05-12T05:19:24.381Z,33.40
2019-05-12T05:21:55.494Z,33.40
2019-05-12T05:24:26.219Z,33.50
2019-05-12T05:26:57.059Z,33.60
2019-05-12T05:29:27.957Z,33.60
2019-05-12T05:31:58.843Z,33.70
2019-05-12T05:34:29.822Z,33.70
2019-05-12T05:37:01.634Z,33.80
2019-05-12T05:39:35.781Z,33.90
2019-05-12T05:42:04.926Z,33.90
2019-05-12T05:44:37.970Z,33.90
2019-05-12T05:47:08.257Z,34.00
2019-05-12T05:49:38.944Z,34.10
2019-05-12T05:52:09.938Z,34.10
2019-05-12T05:54:40.795Z,34.20
2019-05-12T05:57:11.660Z,34.20
2019-05-12T05:59:42.670Z,34.20
2019-05-12T06:02:14.792Z,34.20
2019-05-12T06:04:49.822Z,34.30
2019-05-12T06:07:17.989Z,34.30
2019-05-12T06:09:48.875Z,34.40
2019-05-12T06:12:19.941Z,34.40
2019-05-12T06:14:57.885Z,34.30
2019-05-12T06:17:23.606Z,34.30
2019-05-12T06:19:54.585Z,34.30
2019-05-12T06:22:25.622Z,34.40
2019-05-12T06:24:58.907Z,34.40
2019-05-12T06:27:32.551Z,34.50
2019-05-12T06:30:06.034Z,34.60
2019-05-12T06:32:33.741Z,34.70
2019-05-12T06:35:05.314Z,34.80
2019-05-12T06:37:36.322Z,34.90
2019-05-12T06:40:08.342Z,34.90
2019-05-12T06:42:39.228Z,35.00
2019-05-12T06:45:09.914Z,35.10
2019-05-12T06:47:47.480Z,35.10
2019-05-12T06:50:14.615Z,35.10
2019-05-12T06:52:48.981Z,35.10
2019-05-12T06:55:16.883Z,35.20
2019-05-12T06:57:50.108Z,35.20
2019-05-12T07:00:22.337Z,35.30
2019-05-12T07:02:53.102Z,35.30
2019-05-12T07:05:28.138Z,35.40
2019-05-12T07:07:56.935Z,35.40
2019-05-12T07:10:46.738Z,35.40
2019-05-12T07:13:04.556Z,35.50
2019-05-12T07:15:35.756Z,35.50
2019-05-12T07:18:06.209Z,35.60
2019-05-12T07:20:38.925Z,35.60
2019-05-12T07:23:09.495Z,35.70
2019-05-12T07:25:40.387Z,35.80
2019-05-12T07:28:11.547Z,35.80
2019-05-12T07:30:44.385Z,35.90
2019-05-12T07:33:15.269Z,35.90
2019-05-12T07:35:46.047Z,35.90
2019-05-12T07:38:21.356Z,35.90
2019-05-12T07:40:49.655Z,35.90
2019-05-12T07:43:20.878Z,35.90
2019-05-12T07:45:56.598Z,35.90
2019-05-12T07:48:23.986Z,36.00
2019-05-12T07:50:58.438Z,36.00
2019-05-12T07:53:26.838Z,36.00
2019-05-12T07:56:00.136Z,36.00
2019-05-12T07:58:33.348Z,35.90
2019-05-12T08:01:07.722Z,35.80
2019-05-12T08:03:36.548Z,35.80
2019-05-12T08:06:07.417Z,35.90
2019-05-12T08:08:44.271Z,35.90
2019-05-12T08:11:10.548Z,35.90
2019-05-12T08:13:43.680Z,35.90
2019-05-12T08:16:14.182Z,36.00
2019-05-12T08:18:45.481Z,36.00
2019-05-12T08:21:17.157Z,35.90
2019-05-12T08:23:48.162Z,35.80
2019-05-12T08:26:20.639Z,35.70
2019-05-12T08:28:53.370Z,35.60
2019-05-12T08:31:31.971Z,35.60
2019-05-12T08:33:56.147Z,35.60
2019-05-12T08:36:27.003Z,35.50
2019-05-12T08:38:58.010Z,35.50
2019-05-12T08:41:29.071Z,35.50
2019-05-12T08:44:00.098Z,35.50
2019-05-12T08:46:31.109Z,35.50
2019-05-12T08:49:04.788Z,35.50
2019-05-12T08:51:34.791Z,35.50
2019-05-12T08:54:08.119Z,35.40
2019-05-12T08:56:38.072Z,35.40
2019-05-12T08:59:09.703Z,35.50
2019-05-12T09:01:43.707Z,35.50
2019-05-12T09:04:17.444Z,35.50
2019-05-12T09:06:53.377Z,35.40
2019-05-12T09:09:18.149Z,35.30
2019-05-12T09:11:49.112Z,35.30
2019-05-12T09:14:20.119Z,35.20
2019-05-12T09:16:53.761Z,35.20
2019-05-12T09:19:24.971Z,35.20
2019-05-12T09:21:55.666Z,35.10
2019-05-12T09:24:27.370Z,35.20
2019-05-12T09:26:58.978Z,35.20
2019-05-12T09:29:30.458Z,35.10
2019-05-12T09:32:05.418Z,35.20
2019-05-12T09:34:33.737Z,35.10
2019-05-12T09:37:04.780Z,35.10
2019-05-12T09:39:42.643Z,35.10
2019-05-12T09:42:07.954Z,35.20
2019-05-12T09:44:41.255Z,35.20
2019-05-12T09:47:22.003Z,35.20
2019-05-12T09:49:44.424Z,35.20
2019-05-12T09:52:22.279Z,35.10
2019-05-12T09:54:47.645Z,35.00
2019-05-12T09:57:18.628Z,34.90
2019-05-12T09:59:57.284Z,34.90
2019-05-12T10:02:23.802Z,34.80
2019-05-12T10:04:58.762Z,34.70
2019-05-12T10:07:26.438Z,34.60
2019-05-12T10:09:59.067Z,34.50
2019-05-12T10:12:29.982Z,34.50
2019-05-12T10:15:01.045Z,34.40
2019-05-12T10:17:33.861Z,34.40
2019-05-12T10:20:04.418Z,34.40
2019-05-12T10:22:40.086Z,34.40
2019-05-12T10:25:10.739Z,34.40
2019-05-12T10:27:44.081Z,34.30
2019-05-12T10:30:17.187Z,34.20
2019-05-12T10:32:47.457Z,34.20
2019-05-12T10:35:26.141Z,34.20
2019-05-12T10:37:50.855Z,34.10
2019-05-12T10:40:23.342Z,34.10
2019-05-12T10:42:53.649Z,34.10
2019-05-12T10:45:25.568Z,34.10
2019-05-12T10:47:56.580Z,34.00
2019-05-12T10:50:27.621Z,34.00
2019-05-12T10:52:58.469Z,33.90
2019-05-12T10:55:29.350Z,33.90
2019-05-12T10:58:03.235Z,33.90
2019-05-12T11:00:33.840Z,33.80
2019-05-12T11:03:12.287Z,33.80
2019-05-12T11:05:36.935Z,33.70
2019-05-12T11:08:10.978Z,33.70
2019-05-12T11:10:40.225Z,33.70
2019-05-12T11:13:11.251Z,33.70
2019-05-12T11:15:46.173Z,33.70
2019-05-12T11:18:15.085Z,33.60
2019-05-12T11:20:46.546Z,33.70
2019-05-12T11:23:18.050Z,33.60
2019-05-12T11:25:48.883Z,33.60
2019-05-12T11:28:20.716Z,33.60
2019-05-12T11:30:51.598Z,33.50
2019-05-12T11:33:23.801Z,33.50
2019-05-12T11:35:54.877Z,33.40
2019-05-12T11:38:25.665Z,33.40
2019-05-12T11:40:56.625Z,33.30
2019-05-12T11:43:29.777Z,33.30
2019-05-12T11:45:59.734Z,33.30
2019-05-12T11:48:30.511Z,33.20
2019-05-12T11:51:03.929Z,33.20
2019-05-12T11:53:35.432Z,33.20
2019-05-12T11:56:07.627Z,33.20
2019-05-12T11:58:41.204Z,33.20
2019-05-12T12:01:13.453Z,33.10
2019-05-12T12:03:44.171Z,33.10
2019-05-12T12:06:15.091Z,33.00
2019-05-12T12:08:46.394Z,33.10
2019-05-12T12:11:24.324Z,33.00
2019-05-12T12:13:50.746Z,33.00
2019-05-12T12:16:23.581Z,33.00
2019-05-12T12:19:02.391Z,33.00
2019-05-12T12:21:26.353Z,32.90
2019-05-12T12:23:57.253Z,32.90
2019-05-12T12:26:30.196Z,32.90
2019-05-12T12:29:00.617Z,32.90
2019-05-12T12:31:37.346Z,32.80
2019-05-12T12:34:05.090Z,32.80
2019-05-12T12:36:36.092Z,32.80
2019-05-12T12:39:08.339Z,32.80
2019-05-12T12:41:45.679Z,32.80
2019-05-12T12:44:13.499Z,32.80
2019-05-12T12:46:44.049Z,32.70
2019-05-12T12:49:14.917Z,32.70
2019-05-12T12:51:45.821Z,32.70
2019-05-12T12:54:17.126Z,32.70
2019-05-12T12:56:48.020Z,32.70
2019-05-12T12:59:19.020Z,32.60
2019-05-12T13:01:50.475Z,32.60
2019-05-12T13:04:21.474Z,32.60
2019-05-12T13:06:54.212Z,32.60
2019-05-12T13:09:24.829Z,32.60
2019-05-12T13:11:55.986Z,32.50
2019-05-12T13:14:28.514Z,32.50
2019-05-12T13:16:59.250Z,32.50
2019-05-12T13:19:30.134Z,32.40
2019-05-12T13:22:01.110Z,32.40
2019-05-12T13:24:33.581Z,32.40
2019-05-12T13:27:04.307Z,32.40
2019-05-12T13:29:39.744Z,32.40
2019-05-12T13:32:07.676Z,32.40
2019-05-12T13:34:38.718Z,32.30
2019-05-12T13:37:14.758Z,32.30
2019-05-12T13:39:54.680Z,32.30
2019-05-12T13:42:14.133Z,32.30
2019-05-12T13:44:45.031Z,32.30
2019-05-12T13:47:16.174Z,32.30
2019-05-12T13:49:47.607Z,32.20
2019-05-12T13:52:20.122Z,32.20
2019-05-12T13:54:50.952Z,32.20
2019-05-12T13:57:23.534Z,32.10
2019-05-12T14:00:05.629Z,32.10
2019-05-12T14:02:26.167Z,32.10
2019-05-12T14:05:00.440Z,32.00
2019-05-12T14:07:29.481Z,32.00
2019-05-12T14:10:00.372Z,32.00
2019-05-12T14:12:31.234Z,32.00
2019-05-12T14:15:02.120Z,32.00
2019-05-12T14:17:38.771Z,31.90
2019-05-12T14:20:09.404Z,31.90
2019-05-12T14:22:41.272Z,31.80
2019-05-12T14:25:11.011Z,31.80
2019-05-12T14:27:43.716Z,31.80
2019-05-12T14:30:14.695Z,31.80
2019-05-12T14:32:49.235Z,31.70
2019-05-12T14:35:18.183Z,31.70
2019-05-12T14:37:49.005Z,31.70
2019-05-12T14:40:26.019Z,31.70
2019-05-12T14:42:54.259Z,31.70
2019-05-12T14:45:29.620Z,31.60
2019-05-12T14:47:59.987Z,31.60
2019-05-12T14:50:29.187Z,31.60
2019-05-12T14:53:00.185Z,31.60
2019-05-12T14:55:33.553Z,31.60
2019-05-12T14:58:03.737Z,31.60
2019-05-12T15:00:34.790Z,31.60
2019-05-12T15:03:12.717Z,31.60
2019-05-12T15:05:41.379Z,31.60
2019-05-12T15:08:09.592Z,31.60
2019-05-12T15:10:40.471Z,31.60
2019-05-12T15:13:13.918Z,31.60
2019-05-12T15:15:44.051Z,31.50
2019-05-12T15:18:16.063Z,31.50
2019-05-12T15:20:49.995Z,31.50
2019-05-12T15:23:23.896Z,31.50
2019-05-12T15:25:53.718Z,31.50
2019-05-12T15:28:24.398Z,31.40
2019-05-12T15:30:55.431Z,31.40
2019-05-12T15:33:26.396Z,31.40
2019-05-12T15:35:57.269Z,31.30
2019-05-12T15:38:28.268Z,31.30
2019-05-12T15:40:59.120Z,31.30
2019-05-12T15:43:29.827Z,31.20
2019-05-12T15:46:00.497Z,31.20
2019-05-12T15:48:31.201Z,31.20
2019-05-12T15:51:05.245Z,31.20
2019-05-12T15:53:35.897Z,31.20
2019-05-12T15:56:14.767Z,31.20
2019-05-12T15:58:39.266Z,31.20
2019-05-12T16:01:10.147Z,31.10
2019-05-12T16:03:41.004Z,31.10
2019-05-12T16:06:14.627Z,31.10
2019-05-12T16:08:44.070Z,31.10
2019-05-12T16:11:14.818Z,31.10
2019-05-12T16:13:53.708Z,31.10
2019-05-12T16:16:17.816Z,31.00
2019-05-12T16:18:50.639Z,31.00
2019-05-12T16:21:21.203Z,31.00
2019-05-12T16:23:53.506Z,30.90
2019-05-12T16:26:24.347Z,30.90
2019-05-12T16:29:02.610Z,30.80
2019-05-12T16:31:27.496Z,30.80
2019-05-12T16:34:01.303Z,30.70
2019-05-12T16:36:33.570Z,30.70
2019-05-12T16:39:03.954Z,30.60
2019-05-12T16:41:35.993Z,30.60
2019-05-12T16:44:15.927Z,30.50
2019-05-12T16:46:39.341Z,30.50
2019-05-12T16:49:10.109Z,30.40
2019-05-12T16:51:41.191Z,30.40
2019-05-12T16:54:12.057Z,30.40
2019-05-12T16:56:43.340Z,30.40
2019-05-12T16:59:20.136Z,30.30
2019-05-12T17:01:47.287Z,30.30
2019-05-12T17:04:18.267Z,30.30
2019-05-12T17:06:49.132Z,30.30
2019-05-12T17:09:19.837Z,30.30
2019-05-12T17:11:52.823Z,30.30
2019-05-12T17:14:23.490Z,30.30
2019-05-12T17:16:57.146Z,30.20
2019-05-12T17:19:30.388Z,30.20
2019-05-12T17:22:01.262Z,30.20
2019-05-12T17:24:34.272Z,30.10
2019-05-12T17:27:09.238Z,30.10
2019-05-12T17:29:37.528Z,30.10
2019-05-12T17:32:08.831Z,30.10
2019-05-12T17:34:40.264Z,30.10
2019-05-12T17:37:14.372Z,30.00
2019-05-12T17:39:44.191Z,30.00
2019-05-12T17:42:21.474Z,29.90
2019-05-12T17:44:47.109Z,29.90
2019-05-12T17:47:21.407Z,29.80
2019-05-12T17:49:50.060Z,29.80
2019-05-12T17:52:20.705Z,29.80
2019-05-12T17:54:57.968Z,29.80
2019-05-12T17:57:24.135Z,29.80
2019-05-12T17:59:59.749Z,29.80
2019-05-12T18:02:27.392Z,29.80
2019-05-12T18:05:01.310Z,29.80
2019-05-12T18:07:30.485Z,29.80
2019-05-12T18:10:01.300Z,29.70
2019-05-12T18:12:36.710Z,29.80
2019-05-12T18:15:04.705Z,29.80
2019-05-12T18:17:39.126Z,29.80
2019-05-12T18:20:08.824Z,29.80
2019-05-12T18:22:45.052Z,29.80
2019-05-12T18:25:14.357Z,29.80
2019-05-12T18:27:50.602Z,29.80
2019-05-12T18:30:19.078Z,29.70
2019-05-12T18:32:57.694Z,29.70
2019-05-12T18:35:21.263Z,29.70
2019-05-12T18:37:54.177Z,29.70
2019-05-12T18:40:27.615Z,29.70
2019-05-12T18:42:56.837Z,29.60
2019-05-12T18:45:27.922Z,29.60
2019-05-12T18:48:01.120Z,29.50
2019-05-12T18:50:32.109Z,29.50
2019-05-12T18:53:03.457Z,29.50
2019-05-12T18:55:35.778Z,29.50
2019-05-12T18:58:06.467Z,29.50
2019-05-12T19:00:37.467Z,29.50
2019-05-12T19:03:09.966Z,29.50
2019-05-12T19:05:40.774Z,29.50
2019-05-12T19:08:13.821Z,29.50
2019-05-12T19:10:48.700Z,29.50
2019-05-12T19:13:16.056Z,29.50
2019-05-12T19:15:47.253Z,29.50
2019-05-12T19:18:18.449Z,29.50
2019-05-12T19:20:50.207Z,29.40
2019-05-12T19:23:20.986Z,29.50
2019-05-12T19:25:54.190Z,29.40
2019-05-12T19:28:24.161Z,29.40
2019-05-12T19:31:01.031Z,29.30
2019-05-12T19:33:27.332Z,29.30
2019-05-12T19:36:04.252Z,29.20
2019-05-12T19:38:30.693Z,29.20
2019-05-12T19:41:04.446Z,29.10
2019-05-12T19:43:39.142Z,29.10
2019-05-12T19:46:06.862Z,29.00
2019-05-12T19:48:44.319Z,29.00
2019-05-12T19:51:20.830Z,29.00
2019-05-12T19:53:43.751Z,29.00
2019-05-12T19:56:15.002Z,29.00
2019-05-12T19:58:46.053Z,29.00
2019-05-12T20:01:16.774Z,29.00
2019-05-12T20:03:50.112Z,29.00
2019-05-12T20:06:19.942Z,29.00
2019-05-12T20:08:55.740Z,29.00
2019-05-12T20:11:29.339Z,29.00
2019-05-12T20:13:55.666Z,28.90
2019-05-12T20:16:30.334Z,28.90
2019-05-12T20:18:58.965Z,28.90
2019-05-12T20:21:29.660Z,28.90
2019-05-12T20:24:00.507Z,28.90
2019-05-12T20:26:33.195Z,28.90
2019-05-12T20:29:04.523Z,28.90
2019-05-12T20:31:43.466Z,28.80
2019-05-12T20:34:10.977Z,28.80
2019-05-12T20:36:40.146Z,28.80
2019-05-12T20:39:16.811Z,28.90
2019-05-12T20:41:43.095Z,28.80
2019-05-12T20:44:17.340Z,28.80
2019-05-12T20:46:46.165Z,28.80
2019-05-12T20:49:20.185Z,28.80
2019-05-12T20:51:54.986Z,28.90
2019-05-12T20:54:23.779Z,28.90
2019-05-12T20:57:02.300Z,28.90
2019-05-12T20:59:28.155Z,28.90
2019-05-12T21:01:57.919Z,28.90
2019-05-12T21:04:37.065Z,28.90
2019-05-12T21:07:00.702Z,28.90
2019-05-12T21:09:31.688Z,28.90
2019-05-12T21:12:02.644Z,28.90
2019-05-12T21:14:33.574Z,28.80
2019-05-12T21:17:09.554Z,28.80
2019-05-12T21:19:38.744Z,28.70
2019-05-12T21:22:09.206Z,28.70
2019-05-12T21:24:40.131Z,28.60
2019-05-12T21:27:15.749Z,28.60
2019-05-12T21:29:43.758Z,28.50
2019-05-12T21:32:16.945Z,28.50
2019-05-12T21:34:46.946Z,28.50
2019-05-12T21:37:17.905Z,28.50
2019-05-12T21:39:50.924Z,28.40
2019-05-12T21:42:24.917Z,28.40
2019-05-12T21:44:53.614Z,28.40
2019-05-12T21:47:24.474Z,28.40
2019-05-12T21:49:57.792Z,28.50
2019-05-12T21:52:27.414Z,28.50
2019-05-12T21:54:58.520Z,28.50
2019-05-12T21:57:31.147Z,28.50
2019-05-12T22:00:04.600Z,28.50
2019-05-12T22:02:35.082Z,28.50
2019-05-12T22:05:07.146Z,28.40
2019-05-12T22:07:39.852Z,28.40
2019-05-12T22:10:10.289Z,28.30
2019-05-12T22:12:40.980Z,28.30
2019-05-12T22:15:19.229Z,28.30
2019-05-12T22:17:48.443Z,28.20
2019-05-12T22:20:19.903Z,28.10
2019-05-12T22:22:51.016Z,28.10
2019-05-12T22:25:23.657Z,28.10
2019-05-12T22:27:59.023Z,28.00
2019-05-12T22:30:27.034Z,28.00
2019-05-12T22:32:59.502Z,27.90
2019-05-12T22:35:30.445Z,27.90
2019-05-12T22:38:03.911Z,27.90
2019-05-12T22:40:33.468Z,27.90
2019-05-12T22:43:07.044Z,27.90
2019-05-12T22:45:44.591Z,27.90
2019-05-12T22:48:09.048Z,27.90
2019-05-12T22:50:40.131Z,27.90
2019-05-12T22:53:13.198Z,27.90
2019-05-12T22:55:43.029Z,27.90
2019-05-12T22:58:18.244Z,27.90
2019-05-12T23:00:51.063Z,27.90
2019-05-12T23:03:18.819Z,27.80
2019-05-12T23:05:50.906Z,27.80
2019-05-12T23:08:24.526Z,27.80
2019-05-12T23:10:56.200Z,27.90
2019-05-12T23:13:26.628Z,27.90
2019-05-12T23:15:57.386Z,27.90
2019-05-12T23:18:30.810Z,27.90
2019-05-12T23:21:06.440Z,27.90
2019-05-12T23:23:34.009Z,27.80
2019-05-12T23:26:04.973Z,27.80
2019-05-12T23:28:40.374Z,27.80
2019-05-12T23:31:07.978Z,27.80
2019-05-12T23:33:38.675Z,27.90
2019-05-12T23:36:14.534Z,27.90
2019-05-12T23:38:43.913Z,28.00
2019-05-12T23:41:13.967Z,28.00
2019-05-12T23:43:44.814Z,28.10
2019-05-12T23:46:15.574Z,28.10
2019-05-12T23:48:46.369Z,28.10
2019-05-12T23:51:17.129Z,28.00
2019-05-12T23:53:48.133Z,28.10
2019-05-12T23:56:19.110Z,28.10
2019-05-12T23:58:50.205Z,28.10
